| time (UTC) | temp F | wind direction | speed MPH | gust MPH | rain 1hr in | rain 24hr in | rain mn in | humidity % | barometer mb |
| 20260504194547 | 56 | 0 | 0.0 | 4.0 | 0.00 | 0.00 | 0.00 | 61 | 1017.1 |
| 20260504194027 | 56 | 182 | 1.0 | 4.0 | 0.00 | 0.00 | 0.00 | 61 | 1017.1 |
| 20260504193527 | 56 | 184 | 2.0 | 3.0 | 0.00 | 0.00 | 0.00 | 61 | 1017.1 |
| 20260504193045 | 56 | 190 | 1.0 | 3.0 | 0.00 | 0.00 | 0.00 | 61 | 1017.0 |
| 20260504192526 | 56 | 0 | 1.0 | 4.0 | 0.00 | 0.00 | 0.00 | 61 | 1017.0 |
| 20260504192028 | 56 | 0 | 1.0 | 4.0 | 0.00 | 0.00 | 0.00 | 61 | 1017.0 |
| 20260504191535 | 56 | 190 | 1.0 | 5.0 | 0.00 | 0.00 | 0.00 | 61 | 1016.9 |
| 20260504191026 | 56 | 190 | 1.0 | 5.0 | 0.00 | 0.00 | 0.00 | 61 | 1017.0 |
| 20260504190526 | 56 | 170 | 0.0 | 5.0 | 0.00 | 0.00 | 0.00 | 59 | 1016.8 |
| 20260504190036 | 56 | 182 | 2.0 | 4.0 | 0.00 | 0.00 | 0.00 | 58 | 1016.9 |
| 20260504185527 | 57 | 182 | 1.0 | 3.0 | 0.00 | 0.00 | 0.00 | 57 | 1016.7 |
| 20260504185026 | 57 | 183 | 1.0 | 3.0 | 0.00 | 0.00 | 0.00 | 58 | 1016.7 |
| 20260504184540 | 57 | 181 | 1.0 | 3.0 | 0.00 | 0.00 | 0.00 | 56 | 1016.7 |
| 20260504184028 | 57 | 184 | 1.0 | 3.0 | 0.00 | 0.00 | 0.00 | 56 | 1016.8 |
| 20260504183526 | 57 | 183 | 1.0 | 3.0 | 0.00 | 0.00 | 0.00 | 56 | 1016.7 |
| 20260504183035 | 58 | 184 | 1.0 | 4.0 | 0.00 | 0.00 | 0.00 | 56 | 1016.6 |
| 20260504182528 | 58 | 184 | 2.0 | 4.0 | 0.00 | 0.00 | 0.00 | 56 | 1016.6 |
| 20260504182026 | 58 | 184 | 2.0 | 5.0 | 0.00 | 0.00 | 0.00 | 56 | 1016.5 |
| 20260504181536 | 59 | 215 | 1.0 | 6.0 | 0.00 | 0.00 | 0.00 | 56 | 1016.5 |
| 20260504181027 | 59 | 213 | 3.0 | 8.0 | 0.00 | 0.00 | 0.00 | 54 | 1016.6 |
| 20260504180527 | 60 | 264 | 3.0 | 8.0 | 0.00 | 0.00 | 0.00 | 49 | 1016.4 |
| 20260504180036 | 60 | 323 | 2.0 | 4.0 | 0.00 | 0.00 | 0.00 | 43 | 1016.4 |
| 20260504175527 | 60 | 327 | 1.0 | 4.0 | 0.00 | 0.00 | 0.00 | 38 | 1016.4 |
| 20260504175026 | 60 | 326 | 2.0 | 5.0 | 0.00 | 0.00 | 0.00 | 37 | 1016.4 |
| 20260504174533 | 60 | 322 | 2.0 | 5.0 | 0.00 | 0.00 | 0.00 | 37 | 1016.4 |
| 20260504174026 | 61 | 0 | 0.0 | 9.0 | 0.00 | 0.00 | 0.00 | 37 | 1016.5 |
| 20260504173527 | 61 | 10 | 2.0 | 9.0 | 0.00 | 0.00 | 0.00 | 36 | 1016.5 |
| 20260504173046 | 61 | 340 | 3.0 | 11.0 | 0.00 | 0.00 | 0.00 | 35 | 1016.4 |
| 20260504172526 | 61 | 10 | 5.0 | 11.0 | 0.00 | 0.00 | 0.00 | 35 | 1016.4 |
| 20260504172027 | 61 | 26 | 3.0 | 8.0 | 0.00 | 0.00 | 0.00 | 35 | 1016.4 |
| 20260504171534 | 62 | 346 | 4.0 | 8.0 | 0.00 | 0.00 | 0.00 | 35 | 1016.4 |
| 20260504171030 | 62 | 15 | 3.0 | 9.0 | 0.00 | 0.00 | 0.00 | 36 | 1016.3 |
| 20260504170527 | 62 | 346 | 4.0 | 9.0 | 0.00 | 0.00 | 0.00 | 36 | 1016.3 |
| 20260504151026 | 65 | 331 | 8.0 | 18.0 | 0.00 | 0.00 | 0.00 | 30 | 1016.2 |
| 20260504150526 | 65 | 327 | 7.0 | 17.0 | 0.00 | 0.00 | 0.00 | 29 | 1016.3 |
| 20260504141026 | 65 | 332 | 10.0 | 17.0 | 0.00 | 0.00 | 0.00 | 28 | 1016.6 |
| 20260504140526 | 65 | 334 | 11.0 | 17.0 | 0.00 | 0.00 | 0.00 | 27 | 1016.5 |
| 20260504130525 | 64 | 355 | 10.0 | 17.0 | 0.00 | 0.00 | 0.00 | 33 | 1016.5 |
| 20260504110527 | 61 | 332 | 7.0 | 18.0 | 0.00 | 0.00 | 0.00 | 37 | 1017.7 |
| 20260504100526 | 62 | 360 | 5.0 | 16.0 | 0.00 | 0.00 | 0.00 | 39 | 1018.0 |
| 20260504081535 | 58 | 313 | 4.0 | 10.0 | 0.00 | 0.00 | 0.00 | 47 | 1018.1 |
| 20260504081028 | 57 | 304 | 5.0 | 10.0 | 0.00 | 0.00 | 0.00 | 49 | 1018.0 |
| 20260504080528 | 57 | 318 | 5.0 | 12.0 | 0.00 | 0.00 | 0.00 | 49 | 1018.1 |
| 20260504050530 | 51 | 0 | 2.0 | 3.0 | 0.00 | 0.00 | 0.00 | 66 | 1017.4 |
| 20260504045528 | 50 | 0 | 0.0 | 1.0 | 0.00 | 0.05 | 0.00 | 69 | 1017.4 |
| 20260504045027 | 50 | 0 | 0.0 | 3.0 | 0.00 | 0.05 | 0.00 | 70 | 1017.3 |
| 20260504044557 | 49 | 0 | 0.0 | 3.0 | 0.00 | 0.05 | 0.00 | 71 | 1017.3 |
| 20260504044028 | 49 | 0 | 1.0 | 3.0 | 0.00 | 0.05 | 0.00 | 71 | 1017.2 |
| 20260504043528 | 49 | 0 | 1.0 | 4.0 | 0.00 | 0.05 | 0.00 | 69 | 1017.2 |
| 20260504043040 | 48 | 191 | 1.0 | 4.0 | 0.00 | 0.05 | 0.00 | 71 | 1017.2 |
| 20260504042527 | 48 | 196 | 2.0 | 4.0 | 0.00 | 0.05 | 0.00 | 72 | 1017.2 |
| 20260504042027 | 48 | 225 | 1.0 | 3.0 | 0.00 | 0.05 | 0.00 | 72 | 1017.1 |
| 20260504041535 | 48 | 238 | 0.0 | 4.0 | 0.00 | 0.05 | 0.00 | 72 | 1017.1 |
| 20260504041027 | 47 | 238 | 1.0 | 5.0 | 0.00 | 0.05 | 0.00 | 73 | 1017.1 |
| 20260504040530 | 47 | 239 | 2.0 | 5.0 | 0.00 | 0.05 | 0.00 | 72 | 1017.1 |
| 20260504040040 | 47 | 239 | 0.0 | 1.0 | 0.00 | 0.05 | 0.00 | 72 | 1017.0 |
| 20260504035528 | 48 | 0 | 0.0 | 0.0 | 0.00 | 0.05 | 0.00 | 70 | 1016.8 |
| 20260504035029 | 48 | 0 | 0.0 | 0.0 | 0.00 | 0.05 | 0.00 | 71 | 1016.8 |
| 20260504034551 | 47 | 0 | 0.0 | 1.0 | 0.00 | 0.05 | 0.00 | 72 | 1016.8 |
| 20260504034027 | 47 | 0 | 0.0 | 3.0 | 0.00 | 0.05 | 0.00 | 73 | 1016.8 |
| 20260504033527 | 47 | 0 | 1.0 | 3.0 | 0.00 | 0.05 | 0.00 | 73 | 1016.8 |
| 20260504033052 | 47 | 72 | 1.0 | 3.0 | 0.00 | 0.05 | 0.00 | 71 | 1016.8 |
| 20260504032527 | 48 | 0 | 0.0 | 0.0 | 0.00 | 0.05 | 0.00 | 70 | 1016.8 |
| 20260504032029 | 48 | 0 | 0.0 | 3.0 | 0.00 | 0.05 | 0.00 | 69 | 1016.9 |
| 20260504031541 | 48 | 0 | 0.0 | 4.0 | 0.00 | 0.05 | 0.00 | 69 | 1016.8 |
| 20260504031027 | 48 | 71 | 2.0 | 6.0 | 0.00 | 0.05 | 0.00 | 69 | 1016.8 |
| 20260504030527 | 48 | 73 | 2.0 | 6.0 | 0.00 | 0.05 | 0.00 | 69 | 1016.8 |
| 20260504030038 | 48 | 83 | 3.0 | 6.0 | 0.00 | 0.05 | 0.00 | 69 | 1016.7 |
| 20260504025527 | 48 | 146 | 0.0 | 4.0 | 0.00 | 0.05 | 0.00 | 69 | 1016.8 |
| 20260504025029 | 48 | 0 | 0.0 | 0.0 | 0.00 | 0.05 | 0.00 | 70 | 1016.6 |
| 20260504024544 | 47 | 0 | 0.0 | 2.0 | 0.00 | 0.05 | 0.00 | 70 | 1016.6 |
| 20260504024027 | 47 | 0 | 0.0 | 5.0 | 0.00 | 0.05 | 0.00 | 70 | 1016.8 |
| 20260504023525 | 47 | 0 | 1.0 | 5.0 | 0.00 | 0.05 | 0.00 | 70 | 1016.8 |
| 20260504023037 | 47 | 151 | 3.0 | 5.0 | 0.00 | 0.05 | 0.00 | 70 | 1016.8 |
| 20260504022525 | 47 | 0 | 0.0 | 2.0 | 0.00 | 0.05 | 0.00 | 70 | 1016.8 |
| 20260504022022 | 47 | 0 | 0.0 | 5.0 | 0.00 | 0.05 | 0.00 | 70 | 1016.8 |
| 20260504021540 | 47 | 165 | 0.0 | 5.0 | 0.00 | 0.05 | 0.00 | 70 | 1016.8 |
| 20260504021022 | 47 | 167 | 2.0 | 5.0 | 0.00 | 0.05 | 0.00 | 69 | 1016.7 |
| 20260504020522 | 47 | 167 | 0.0 | 5.0 | 0.00 | 0.05 | 0.00 | 68 | 1016.9 |
| 20260504020036 | 47 | 167 | 3.0 | 5.0 | 0.00 | 0.05 | 0.00 | 68 | 1016.9 |
| 20260504015526 | 47 | 172 | 2.0 | 5.0 | 0.00 | 0.05 | 0.00 | 69 | 1016.9 |
| 20260504015025 | 47 | 107 | 1.0 | 3.0 | 0.00 | 0.05 | 0.00 | 68 | 1016.9 |
| 20260504014539 | 48 | 0 | 0.0 | 3.0 | 0.00 | 0.05 | 0.00 | 67 | 1017.0 |
| 20260504014022 | 48 | 44 | 1.0 | 4.0 | 0.00 | 0.05 | 0.00 | 67 | 1017.0 |
| 20260504013525 | 48 | 0 | 0.0 | 4.0 | 0.00 | 0.05 | 0.00 | 65 | 1016.8 |
| 20260504013042 | 48 | 42 | 2.0 | 5.0 | 0.00 | 0.05 | 0.00 | 67 | 1016.9 |
| 20260504012525 | 47 | 0 | 0.0 | 5.0 | 0.00 | 0.05 | 0.00 | 67 | 1016.8 |
| 20260504012027 | 47 | 49 | 1.0 | 3.0 | 0.00 | 0.05 | 0.00 | 67 | 1016.9 |
| 20260504011537 | 47 | 0 | 0.0 | 0.0 | 0.00 | 0.05 | 0.00 | 67 | 1017.0 |
| 20260504011021 | 47 | 0 | 0.0 | 6.0 | 0.00 | 0.05 | 0.00 | 67 | 1016.9 |
| 20260504010525 | 47 | 0 | 1.0 | 6.0 | 0.00 | 0.05 | 0.00 | 67 | 1016.9 |
| 20260504010052 | 47 | 168 | 2.0 | 5.0 | 0.00 | 0.05 | 0.00 | 66 | 1016.8 |
| 20260504005522 | 48 | 155 | 1.0 | 4.0 | 0.00 | 0.05 | 0.00 | 65 | 1016.9 |
| 20260504005022 | 48 | 0 | 1.0 | 3.0 | 0.00 | 0.05 | 0.00 | 66 | 1017.0 |
| 20260504004536 | 48 | 155 | 2.0 | 3.0 | 0.00 | 0.05 | 0.00 | 65 | 1016.9 |
| 20260504004021 | 48 | 0 | 1.0 | 5.0 | 0.00 | 0.05 | 0.00 | 65 | 1016.9 |
| 20260504003521 | 48 | 155 | 2.0 | 7.0 | 0.00 | 0.05 | 0.00 | 65 | 1016.9 |
| 20260504003035 | 48 | 159 | 1.0 | 7.0 | 0.00 | 0.05 | 0.00 | 65 | 1016.9 |
| 20260504002525 | 48 | 161 | 5.0 | 7.0 | 0.00 | 0.05 | 0.00 | 65 | 1016.8 |
| 20260504002025 | 47 | 159 | 5.0 | 6.0 | 0.00 | 0.05 | 0.00 | 66 | 1016.8 |
| 20260504001541 | 48 | 169 | 3.0 | 6.0 | 0.00 | 0.05 | 0.00 | 66 | 1016.8 |
| 20260504001025 | 47 | 167 | 3.0 | 7.0 | 0.00 | 0.05 | 0.00 | 66 | 1016.9 |
| 20260504000525 | 48 | 188 | 3.0 | 7.0 | 0.00 | 0.05 | 0.00 | 66 | 1016.9 |
| 20260504000044 | 48 | 157 | 5.0 | 7.0 | 0.00 | 0.05 | 0.00 | 66 | 1016.9 |
| 20260503235522 | 48 | 163 | 4.0 | 6.0 | 0.00 | 0.05 | 0.00 | 66 | 1017.1 |
| 20260503235022 | 47 | 163 | 3.0 | 5.0 | 0.00 | 0.05 | 0.00 | 67 | 1016.9 |
| 20260503234539 | 47 | 169 | 3.0 | 7.0 | 0.00 | 0.05 | 0.00 | 67 | 1016.8 |
| 20260503234023 | 47 | 180 | 3.0 | 7.0 | 0.00 | 0.05 | 0.00 | 67 | 1016.9 |
| 20260503233525 | 47 | 165 | 3.0 | 6.0 | 0.00 | 0.05 | 0.00 | 67 | 1016.8 |
| 20260503233108 | 47 | 159 | 3.0 | 5.0 | 0.00 | 0.05 | 0.00 | 67 | 1017.0 |
| 20260503232526 | 47 | 171 | 2.0 | 4.0 | 0.00 | 0.05 | 0.00 | 67 | 1017.0 |
| 20260503232027 | 47 | 182 | 1.0 | 4.0 | 0.00 | 0.05 | 0.00 | 68 | 1016.9 |
| 20260503231538 | 48 | 169 | 2.0 | 4.0 | 0.00 | 0.05 | 0.00 | 67 | 1016.9 |
| 20260503231027 | 48 | 270 | 1.0 | 3.0 | 0.00 | 0.05 | 0.00 | 67 | 1016.9 |
| 20260503230527 | 48 | 281 | 0.0 | 1.0 | 0.00 | 0.05 | 0.00 | 66 | 1016.8 |
| 20260503230044 | 49 | 0 | 0.0 | 2.0 | 0.00 | 0.05 | 0.00 | 64 | 1016.9 |
| 20260503225527 | 49 | 0 | 0.0 | 2.0 | 0.00 | 0.05 | 0.00 | 63 | 1017.0 |
| 20260503225027 | 49 | 0 | 0.0 | 4.0 | 0.00 | 0.05 | 0.00 | 63 | 1017.0 |
| 20260503224542 | 49 | 0 | 1.0 | 4.0 | 0.00 | 0.05 | 0.00 | 63 | 1017.0 |
| 20260503224027 | 49 | 0 | 1.0 | 4.0 | 0.00 | 0.05 | 0.00 | 62 | 1017.0 |
| 20260503223527 | 49 | 292 | 2.0 | 4.0 | 0.00 | 0.05 | 0.00 | 62 | 1017.1 |
| 20260503223040 | 50 | 263 | 1.0 | 7.0 | 0.00 | 0.05 | 0.00 | 62 | 1017.0 |
| 20260503222526 | 50 | 271 | 1.0 | 7.0 | 0.00 | 0.05 | 0.00 | 62 | 1017.0 |
| 20260503222027 | 50 | 284 | 2.0 | 7.0 | 0.00 | 0.05 | 0.00 | 62 | 1017.1 |
| 20260503221541 | 50 | 257 | 3.0 | 7.0 | 0.00 | 0.05 | 0.00 | 62 | 1017.1 |
| 20260503221026 | 50 | 270 | 3.0 | 7.0 | 0.00 | 0.05 | 0.00 | 62 | 1017.1 |
| 20260503220528 | 50 | 280 | 3.0 | 7.0 | 0.00 | 0.05 | 0.00 | 62 | 1017.1 |
| 20260503220103 | 50 | 257 | 0.0 | 6.0 | 0.00 | 0.05 | 0.00 | 62 | 1017.2 |
| 20260503215526 | 50 | 257 | 1.0 | 6.0 | 0.00 | 0.06 | 0.00 | 62 | 1017.1 |
| 20260503215026 | 50 | 284 | 2.0 | 6.0 | 0.00 | 0.06 | 0.00 | 62 | 1017.2 |
| 20260503214545 | 50 | 260 | 1.0 | 6.0 | 0.00 | 0.06 | 0.00 | 62 | 1017.1 |
| 20260503214027 | 50 | 0 | 0.0 | 7.0 | 0.00 | 0.06 | 0.00 | 62 | 1017.2 |
| 20260503213529 | 50 | 257 | 2.0 | 7.0 | 0.00 | 0.06 | 0.00 | 62 | 1017.1 |
| 20260503213039 | 50 | 252 | 3.0 | 7.0 | 0.00 | 0.06 | 0.00 | 62 | 1017.1 |
| 20260503212529 | 50 | 251 | 2.0 | 5.0 | 0.00 | 0.06 | 0.00 | 62 | 1017.1 |
| 20260503212027 | 50 | 223 | 1.0 | 7.0 | 0.00 | 0.06 | 0.00 | 62 | 1017.1 |
| 20260503211545 | 50 | 242 | 2.0 | 7.0 | 0.00 | 0.06 | 0.00 | 62 | 1017.0 |
| 20260503211026 | 50 | 244 | 1.0 | 5.0 | 0.00 | 0.06 | 0.00 | 62 | 1017.1 |
| 20260503210527 | 50 | 239 | 2.0 | 5.0 | 0.00 | 0.06 | 0.00 | 61 | 1017.1 |
| 20260503210037 | 50 | 242 | 2.0 | 7.0 | 0.00 | 0.06 | 0.00 | 61 | 1017.1 |
| 20260503205527 | 50 | 250 | 4.0 | 8.0 | 0.00 | 0.06 | 0.06 | 61 | 1017.1 |
| 20260503205029 | 50 | 246 | 2.0 | 8.0 | 0.00 | 0.06 | 0.06 | 61 | 1017.2 |
| 20260503204547 | 50 | 238 | 2.0 | 9.0 | 0.00 | 0.06 | 0.06 | 61 | 1017.2 |
| 20260503204027 | 51 | 269 | 3.0 | 9.0 | 0.00 | 0.06 | 0.06 | 60 | 1017.2 |
| 20260503203526 | 51 | 264 | 5.0 | 9.0 | 0.00 | 0.06 | 0.06 | 60 | 1017.2 |
| 20260503203038 | 51 | 257 | 3.0 | 8.0 | 0.00 | 0.06 | 0.06 | 60 | 1017.3 |
| 20260503202527 | 51 | 233 | 2.0 | 9.0 | 0.00 | 0.06 | 0.06 | 60 | 1017.2 |
| 20260503202027 | 51 | 252 | 3.0 | 9.0 | 0.00 | 0.06 | 0.06 | 60 | 1017.3 |
| 20260503201558 | 51 | 269 | 3.0 | 10.0 | 0.00 | 0.06 | 0.06 | 60 | 1017.2 |
| 20260503201028 | 51 | 271 | 5.0 | 10.0 | 0.00 | 0.06 | 0.06 | 60 | 1017.3 |
| 20260503200526 | 51 | 288 | 4.0 | 10.0 | 0.00 | 0.06 | 0.06 | 60 | 1017.2 |
| 20260503200037 | 51 | 286 | 3.0 | 8.0 | 0.00 | 0.06 | 0.06 | 60 | 1017.2 |
| 20260503195528 | 51 | 282 | 1.0 | 8.0 | 0.00 | 0.06 | 0.06 | 60 | 1017.2 |
| 20260503195026 | 51 | 268 | 2.0 | 8.0 | 0.00 | 0.06 | 0.06 | 60 | 1017.2 |